createdAt,value
2019-04-30T00:00:25.771Z,90.600586
2019-04-30T00:01:25.790Z,90.600586
2019-04-30T00:02:27.622Z,90.704346
2019-04-30T00:03:25.870Z,90.808105
2019-04-30T00:04:25.362Z,90.808105
2019-04-30T00:05:25.993Z,90.808105
2019-04-30T00:06:27.069Z,90.704346
2019-04-30T00:07:26.058Z,90.808105
2019-04-30T00:08:25.681Z,90.808105
2019-04-30T00:09:25.226Z,90.808105
2019-04-30T00:10:27.275Z,90.704346
2019-04-30T00:11:25.262Z,90.704346
2019-04-30T00:12:25.714Z,90.905762
2019-04-30T00:13:25.852Z,90.808105
2019-04-30T00:14:29.175Z,90.808105
2019-04-30T00:15:26.499Z,90.704346
2019-04-30T00:16:25.601Z,90.704346
2019-04-30T00:17:26.631Z,90.704346
2019-04-30T00:18:25.668Z,90.600586
2019-04-30T00:19:26.747Z,90.600586
2019-04-30T00:20:29.929Z,90.600586
2019-04-30T00:21:26.816Z,90.600586
2019-04-30T00:22:33.460Z,90.600586
2019-04-30T00:23:30.584Z,90.600586
2019-04-30T00:24:26.093Z,90.600586
2019-04-30T00:25:28.479Z,90.600586
2019-04-30T00:26:26.052Z,90.496826
2019-04-30T00:27:30.112Z,90.29541
2019-04-30T00:28:26.126Z,90.393066
2019-04-30T00:29:30.803Z,90.19165
2019-04-30T00:30:26.243Z,90.29541
2019-04-30T00:31:27.583Z,90.29541
2019-04-30T00:32:26.339Z,90.393066
2019-04-30T00:33:27.691Z,90.29541
2019-04-30T00:34:30.824Z,90.29541
2019-04-30T00:35:27.564Z,90.393066
2019-04-30T00:36:27.465Z,90.393066
2019-04-30T00:37:26.651Z,90.393066
2019-04-30T00:38:29.438Z,90.496826
2019-04-30T00:39:27.242Z,90.496826
2019-04-30T00:40:30.077Z,90.600586
2019-04-30T00:41:26.894Z,90.496826
2019-04-30T00:42:28.626Z,90.496826
2019-04-30T00:43:27.060Z,90.393066
2019-04-30T00:44:28.427Z,90.496826
2019-04-30T00:45:27.253Z,90.496826
2019-04-30T00:46:29.396Z,90.496826
2019-04-30T00:47:27.362Z,90.496826
2019-04-30T00:48:31.165Z,90.496826
2019-04-30T00:49:27.492Z,90.496826
2019-04-30T00:50:29.008Z,90.496826
2019-04-30T00:51:27.621Z,90.496826
2019-04-30T00:52:29.424Z,90.704346
2019-04-30T00:53:27.760Z,90.808105
2019-04-30T00:54:30.576Z,90.808105
2019-04-30T00:55:27.925Z,90.704346
2019-04-30T00:56:28.991Z,90.808105
2019-04-30T00:57:28.055Z,90.905762
2019-04-30T00:58:30.320Z,90.905762
2019-04-30T00:59:28.158Z,91.113281
2019-04-30T01:00:29.671Z,91.009521
2019-04-30T01:01:28.314Z,91.009521
2019-04-30T01:02:32.137Z,91.113281
2019-04-30T01:03:28.436Z,91.113281
2019-04-30T01:04:28.477Z,91.113281
2019-04-30T01:05:28.620Z,91.113281
2019-04-30T01:06:28.808Z,91.217041
2019-04-30T01:07:28.755Z,91.217041
2019-04-30T01:08:28.826Z,91.217041
2019-04-30T01:09:28.901Z,91.217041
2019-04-30T01:10:29.014Z,91.217041
2019-04-30T01:11:29.088Z,91.113281
2019-04-30T01:12:34.451Z,91.217041
2019-04-30T01:13:29.186Z,91.217041
2019-04-30T01:14:31.901Z,91.217041
2019-04-30T01:15:29.391Z,91.217041
2019-04-30T01:16:33.080Z,91.314697
2019-04-30T01:17:29.942Z,91.217041
2019-04-30T01:18:31.982Z,91.314697
2019-04-30T01:19:32.223Z,91.314697
2019-04-30T01:20:32.606Z,91.418457
2019-04-30T01:21:29.736Z,91.418457
2019-04-30T01:22:32.803Z,91.418457
2019-04-30T01:23:29.819Z,91.418457
2019-04-30T01:24:31.564Z,91.418457
2019-04-30T01:25:30.028Z,91.522217
2019-04-30T01:26:31.164Z,91.418457
2019-04-30T01:27:29.972Z,91.418457
2019-04-30T01:28:31.040Z,91.418457
2019-04-30T01:29:30.987Z,91.522217
2019-04-30T01:30:30.124Z,91.625977
2019-04-30T01:31:31.566Z,91.625977
2019-04-30T01:32:30.230Z,91.625977
2019-04-30T01:33:34.432Z,91.625977
2019-04-30T01:34:30.375Z,91.625977
2019-04-30T01:35:32.644Z,91.729736
2019-04-30T01:36:30.616Z,91.729736
2019-04-30T01:37:32.774Z,91.729736
2019-04-30T01:38:30.732Z,91.729736
2019-04-30T01:39:31.693Z,91.827393
2019-04-30T01:40:30.858Z,91.827393
2019-04-30T01:41:31.457Z,91.827393
2019-04-30T01:42:31.028Z,91.827393
2019-04-30T01:43:34.354Z,91.931152
2019-04-30T01:44:31.164Z,92.034912
2019-04-30T01:45:31.684Z,91.931152
2019-04-30T01:46:31.422Z,91.931152
2019-04-30T01:47:32.506Z,91.931152
2019-04-30T01:48:31.583Z,92.138672
2019-04-30T01:49:41.928Z,92.034912
2019-04-30T01:50:33.668Z,91.931152
2019-04-30T01:51:31.732Z,91.931152
2019-04-30T01:52:35.056Z,91.931152
2019-04-30T01:53:31.889Z,91.827393
2019-04-30T01:54:32.928Z,91.870117
2019-04-30T01:55:32.011Z,91.973877
2019-04-30T01:56:32.153Z,91.973877
2019-04-30T01:57:32.229Z,91.870117
2019-04-30T01:58:33.414Z,91.870117
2019-04-30T01:59:32.383Z,91.870117
2019-04-30T02:00:32.467Z,91.870117
2019-04-30T02:01:32.579Z,91.973877
2019-04-30T02:02:32.680Z,92.077637
2019-04-30T02:03:32.744Z,92.077637
2019-04-30T02:04:32.796Z,92.181396
2019-04-30T02:05:32.864Z,92.279053
2019-04-30T02:06:32.937Z,92.181396
2019-04-30T02:07:33.071Z,92.279053
2019-04-30T02:08:34.110Z,92.181396
2019-04-30T02:09:33.162Z,92.077637
2019-04-30T02:10:33.216Z,92.016602
2019-04-30T02:11:33.278Z,92.077637
2019-04-30T02:12:33.388Z,92.181396
2019-04-30T02:13:34.495Z,92.279053
2019-04-30T02:14:33.504Z,92.181396
2019-04-30T02:15:33.563Z,92.279053
2019-04-30T02:16:33.659Z,91.870117
2019-04-30T02:17:33.745Z,91.772461
2019-04-30T02:18:33.806Z,91.772461
2019-04-30T02:19:33.873Z,91.870117
2019-04-30T02:20:33.908Z,91.973877
2019-04-30T02:21:33.961Z,91.870117
2019-04-30T02:22:34.050Z,91.870117
2019-04-30T02:23:34.112Z,91.870117
2019-04-30T02:24:34.175Z,91.772461
2019-04-30T02:25:34.233Z,91.564941
2019-04-30T02:26:34.283Z,91.607666
2019-04-30T02:27:34.378Z,91.503906
2019-04-30T02:28:34.442Z,91.503906
2019-04-30T02:29:34.520Z,91.607666
2019-04-30T02:30:34.579Z,91.607666
2019-04-30T02:31:34.651Z,91.711426
2019-04-30T02:32:34.734Z,91.815186
2019-04-30T02:33:34.799Z,91.912842
2019-04-30T02:34:34.859Z,91.955566
2019-04-30T02:35:34.892Z,92.059326
2019-04-30T02:36:34.972Z,92.059326
2019-04-30T02:37:35.074Z,92.163086
2019-04-30T02:38:35.175Z,92.163086
2019-04-30T02:39:35.249Z,92.163086
2019-04-30T02:40:35.324Z,92.266846
2019-04-30T02:41:35.389Z,92.163086
2019-04-30T02:42:35.474Z,92.205811
2019-04-30T02:43:35.563Z,92.205811
2019-04-30T02:44:35.640Z,92.205811
2019-04-30T02:45:35.719Z,92.102051
2019-04-30T02:46:35.806Z,92.102051
2019-04-30T02:47:35.900Z,92.205811
2019-04-30T02:48:36.010Z,92.205811
2019-04-30T02:49:36.076Z,92.102051
2019-04-30T02:50:36.175Z,92.102051
2019-04-30T02:51:36.330Z,92.102051
2019-04-30T02:52:36.249Z,92.041016
2019-04-30T02:53:36.413Z,92.041016
2019-04-30T02:54:36.407Z,92.041016
2019-04-30T02:55:40.247Z,92.041016
2019-04-30T02:56:36.556Z,92.041016
2019-04-30T02:57:36.650Z,92.041016
2019-04-30T02:58:36.761Z,91.943359
2019-04-30T02:59:36.868Z,92.041016
2019-04-30T03:00:39.329Z,92.041016
2019-04-30T03:01:40.178Z,92.08374
2019-04-30T03:02:39.336Z,92.1875
2019-04-30T03:03:39.253Z,92.1875
2019-04-30T03:04:39.500Z,92.29126
2019-04-30T03:05:39.207Z,92.39502
2019-04-30T03:06:39.503Z,92.29126
2019-04-30T03:07:40.659Z,92.29126
2019-04-30T03:08:39.909Z,92.596436
2019-04-30T03:09:39.349Z,92.596436
2019-04-30T03:10:39.668Z,92.74292
2019-04-30T03:11:40.456Z,92.84668
2019-04-30T03:12:40.414Z,92.74292
2019-04-30T03:13:42.357Z,92.84668
2019-04-30T03:14:40.015Z,92.74292
2019-04-30T03:15:39.381Z,92.74292
2019-04-30T03:16:40.085Z,92.84668
2019-04-30T03:17:39.456Z,93.096924
2019-04-30T03:18:39.589Z,93.304443
2019-04-30T03:19:40.225Z,93.304443
2019-04-30T03:20:39.960Z,93.4021
2019-04-30T03:21:40.460Z,93.304443
2019-04-30T03:22:40.019Z,93.304443
2019-04-30T03:23:39.696Z,93.304443
2019-04-30T03:24:39.767Z,93.609619
2019-04-30T03:25:40.499Z,93.609619
2019-04-30T03:26:39.992Z,93.713379
2019-04-30T03:27:42.048Z,93.713379
2019-04-30T03:28:39.625Z,93.652344
2019-04-30T03:29:40.403Z,93.859863
2019-04-30T03:30:41.748Z,93.963623
2019-04-30T03:31:43.732Z,93.963623
2019-04-30T03:32:42.754Z,94.165039
2019-04-30T03:33:42.297Z,94.372559
2019-04-30T03:34:41.812Z,94.580078
2019-04-30T03:35:42.210Z,94.683838
2019-04-30T03:36:40.737Z,94.683838
2019-04-30T03:37:39.767Z,94.781494
2019-04-30T03:38:40.174Z,94.989014
2019-04-30T03:39:40.105Z,94.989014
2019-04-30T03:40:40.532Z,94.989014
2019-04-30T03:41:41.190Z,94.885254
2019-04-30T03:42:39.811Z,94.989014
2019-04-30T03:43:40.138Z,94.989014
2019-04-30T03:44:40.304Z,94.989014
2019-04-30T03:45:40.324Z,94.989014
2019-04-30T03:46:40.514Z,94.781494
2019-04-30T03:47:43.075Z,94.683838
2019-04-30T03:48:40.154Z,94.683838
2019-04-30T03:49:40.499Z,94.781494
2019-04-30T03:50:50.056Z,94.683838
2019-04-30T03:51:40.601Z,94.683838
2019-04-30T03:52:40.407Z,94.683838
2019-04-30T03:53:42.641Z,94.683838
2019-04-30T03:54:40.936Z,94.781494
2019-04-30T03:55:40.637Z,94.885254
2019-04-30T03:56:40.718Z,94.885254
2019-04-30T03:57:40.762Z,94.885254
2019-04-30T03:58:40.829Z,94.781494
2019-04-30T03:59:40.938Z,94.781494
2019-04-30T04:00:42.446Z,94.781494
2019-04-30T04:01:41.084Z,94.781494
2019-04-30T04:02:41.148Z,94.683838
2019-04-30T04:03:42.249Z,94.580078
2019-04-30T04:04:41.320Z,94.683838
2019-04-30T04:05:41.411Z,94.683838
2019-04-30T04:06:41.512Z,94.683838
2019-04-30T04:07:41.612Z,94.781494
2019-04-30T04:08:43.297Z,94.726562
2019-04-30T04:09:41.811Z,94.830322
2019-04-30T04:10:41.868Z,94.830322
2019-04-30T04:11:41.978Z,94.726562
2019-04-30T04:12:42.100Z,94.726562
2019-04-30T04:13:42.229Z,94.726562
2019-04-30T04:14:42.397Z,94.622803
2019-04-30T04:15:42.417Z,94.519043
2019-04-30T04:16:42.407Z,94.519043
2019-04-30T04:17:42.563Z,94.622803
2019-04-30T04:18:42.718Z,94.830322
2019-04-30T04:19:42.712Z,94.927979
2019-04-30T04:20:43.025Z,94.830322
2019-04-30T04:21:43.882Z,94.976807
2019-04-30T04:22:42.895Z,94.976807
2019-04-30T04:23:42.911Z,94.976807
2019-04-30T04:24:42.914Z,94.769287
2019-04-30T04:25:42.994Z,94.665527
2019-04-30T04:26:43.764Z,94.561768
2019-04-30T04:27:43.048Z,94.561768
2019-04-30T04:28:43.586Z,94.561768
2019-04-30T04:29:43.081Z,94.561768
2019-04-30T04:30:43.150Z,94.561768
2019-04-30T04:31:43.141Z,94.561768
2019-04-30T04:32:43.127Z,94.561768
2019-04-30T04:33:43.154Z,94.561768
2019-04-30T04:34:44.958Z,94.561768
2019-04-30T04:35:43.320Z,94.561768
2019-04-30T04:36:43.707Z,94.665527
2019-04-30T04:37:43.506Z,94.873047
2019-04-30T04:38:43.503Z,94.873047
2019-04-30T04:39:43.660Z,94.769287
2019-04-30T04:40:43.685Z,94.769287
2019-04-30T04:41:44.221Z,94.873047
2019-04-30T04:42:43.768Z,94.873047
2019-04-30T04:43:43.763Z,94.976807
2019-04-30T04:44:43.751Z,95.080566
2019-04-30T04:45:43.975Z,95.080566
2019-04-30T04:46:43.936Z,95.080566
2019-04-30T04:47:43.953Z,95.080566
2019-04-30T04:48:43.964Z,94.976807
2019-04-30T04:49:43.987Z,95.080566
2019-04-30T04:50:43.971Z,95.080566
2019-04-30T04:51:44.011Z,95.080566
2019-04-30T04:52:44.013Z,95.178223
2019-04-30T04:53:44.004Z,95.178223
2019-04-30T04:54:44.010Z,95.178223
2019-04-30T04:55:44.011Z,95.281982
2019-04-30T04:56:44.063Z,95.385742
2019-04-30T04:57:45.058Z,95.489502
2019-04-30T04:58:44.050Z,95.489502
2019-04-30T04:59:44.056Z,95.593262
2019-04-30T05:00:44.065Z,95.593262
2019-04-30T05:01:44.130Z,95.593262
2019-04-30T05:02:44.178Z,95.489502
2019-04-30T05:03:44.194Z,95.489502
2019-04-30T05:04:44.184Z,95.550537
2019-04-30T05:05:44.218Z,95.550537
2019-04-30T05:06:44.250Z,95.446777
2019-04-30T05:07:44.268Z,95.446777
2019-04-30T05:08:44.279Z,95.343018
2019-04-30T05:09:44.374Z,95.239258
2019-04-30T05:10:44.389Z,95.239258
2019-04-30T05:11:44.508Z,95.135498
2019-04-30T05:12:44.545Z,95.031738
2019-04-30T05:13:44.550Z,95.031738
2019-04-30T05:14:44.549Z,94.927979
2019-04-30T05:15:44.560Z,94.927979
2019-04-30T05:16:44.579Z,94.830322
2019-04-30T05:17:44.591Z,94.830322
2019-04-30T05:18:44.650Z,94.830322
2019-04-30T05:19:44.660Z,94.726562
2019-04-30T05:20:44.685Z,94.726562
2019-04-30T05:21:44.960Z,94.726562
2019-04-30T05:22:44.855Z,94.622803
2019-04-30T05:23:44.908Z,94.622803
2019-04-30T05:24:44.918Z,94.622803
2019-04-30T05:25:44.940Z,94.622803
2019-04-30T05:26:44.940Z,94.622803
2019-04-30T05:27:45.173Z,94.580078
2019-04-30T05:28:45.186Z,94.580078
2019-04-30T05:29:45.336Z,94.476318
2019-04-30T05:30:45.340Z,94.476318
2019-04-30T05:31:45.350Z,94.476318
2019-04-30T05:32:45.398Z,94.580078
2019-04-30T05:33:45.438Z,94.580078
2019-04-30T05:34:46.457Z,94.476318
2019-04-30T05:35:45.465Z,94.476318
2019-04-30T05:36:45.454Z,94.476318
2019-04-30T05:37:45.512Z,94.580078
2019-04-30T05:38:45.522Z,94.476318
2019-04-30T05:39:45.508Z,94.476318
2019-04-30T05:40:45.493Z,94.433594
2019-04-30T05:41:45.514Z,94.329834
2019-04-30T05:42:45.512Z,94.329834
2019-04-30T05:43:45.546Z,94.226074
2019-04-30T05:44:45.572Z,94.226074
2019-04-30T05:45:45.613Z,94.226074
2019-04-30T05:46:45.621Z,94.122314
2019-04-30T05:47:45.645Z,94.018555
2019-04-30T05:48:45.701Z,93.920898
2019-04-30T05:49:45.713Z,93.566895
2019-04-30T05:50:45.760Z,93.463135
2019-04-30T05:51:53.447Z,93.566895
2019-04-30T05:52:45.921Z,93.566895
2019-04-30T05:53:45.992Z,93.463135
2019-04-30T05:54:45.988Z,93.463135
2019-04-30T05:55:46.002Z,93.463135
2019-04-30T05:56:46.031Z,93.463135
2019-04-30T05:57:53.761Z,93.359375
2019-04-30T05:58:46.208Z,93.255615
2019-04-30T05:59:46.249Z,93.011475
2019-04-30T06:00:47.295Z,92.907715
2019-04-30T06:01:48.571Z,92.596436
2019-04-30T06:02:46.472Z,92.596436
2019-04-30T06:03:48.308Z,92.498779
2019-04-30T06:04:48.647Z,92.498779
2019-04-30T06:05:49.239Z,92.498779
2019-04-30T06:06:48.659Z,92.39502
2019-04-30T06:07:49.516Z,91.52832
2019-04-30T06:08:49.038Z,91.424561
2019-04-30T06:09:48.501Z,91.424561
2019-04-30T06:10:46.954Z,91.424561
2019-04-30T06:11:49.146Z,91.326904
2019-04-30T06:12:48.902Z,90.911865
2019-04-30T06:13:49.077Z,90.606689
2019-04-30T06:14:49.658Z,90.710449
2019-04-30T06:15:48.973Z,90.771484
2019-04-30T06:16:47.215Z,90.460205
2019-04-30T06:17:57.825Z,90.460205
2019-04-30T06:18:48.503Z,90.155029
2019-04-30T06:19:48.740Z,89.84375
2019-04-30T06:20:48.604Z,89.746094
2019-04-30T06:21:49.121Z,89.746094
2019-04-30T06:22:49.658Z,89.84375
2019-04-30T06:23:49.247Z,89.746094
2019-04-30T06:24:49.494Z,89.233398
2019-04-30T06:25:56.974Z,89.129639
2019-04-30T06:26:49.392Z,88.983154
2019-04-30T06:27:48.798Z,87.652588
2019-04-30T06:28:49.598Z,87.854004
2019-04-30T06:29:48.936Z,87.756348
2019-04-30T06:30:49.230Z,87.756348
2019-04-30T06:31:48.601Z,87.957764
2019-04-30T06:32:49.590Z,87.341309
2019-04-30T06:33:48.912Z,87.097168
2019-04-30T06:34:49.758Z,87.408447
2019-04-30T06:35:49.137Z,87.408447
2019-04-30T06:36:51.749Z,86.688232
2019-04-30T06:37:49.198Z,86.383057
2019-04-30T06:38:48.861Z,86.279297
2019-04-30T06:39:49.966Z,85.723877
2019-04-30T06:40:48.826Z,84.802246
2019-04-30T06:41:49.363Z,84.393311
2019-04-30T06:42:49.687Z,84.741211
2019-04-30T06:43:48.881Z,85.217285
2019-04-30T06:44:49.399Z,84.802246
2019-04-30T06:45:51.191Z,84.802246
2019-04-30T06:46:49.053Z,85.009766
2019-04-30T06:47:50.052Z,84.70459
2019-04-30T06:48:50.854Z,84.906006
2019-04-30T06:49:49.229Z,84.088135
2019-04-30T06:50:50.297Z,84.460449
2019-04-30T06:51:50.289Z,82.757568
2019-04-30T06:52:56.721Z,83.575439
2019-04-30T06:53:51.358Z,83.47168
2019-04-30T06:54:49.893Z,83.062744
2019-04-30T06:55:49.592Z,83.435059
2019-04-30T06:56:49.611Z,83.270264
2019-04-30T06:57:49.807Z,82.922363
2019-04-30T06:58:52.355Z,83.435059
2019-04-30T06:59:51.536Z,83.026123
2019-04-30T07:00:49.973Z,82.513428
2019-04-30T07:01:49.972Z,83.129883
2019-04-30T07:02:49.975Z,82.714844
2019-04-30T07:03:49.981Z,82.348633
2019-04-30T07:04:50.135Z,82.757568
2019-04-30T07:05:50.214Z,83.679199
2019-04-30T07:06:50.596Z,82.958984
2019-04-30T07:07:53.255Z,83.270264
2019-04-30T07:08:55.498Z,82.757568
2019-04-30T07:09:54.629Z,82.653809
2019-04-30T07:10:55.502Z,82.244873
2019-04-30T07:11:51.814Z,82.861328
2019-04-30T07:12:50.808Z,82.244873
2019-04-30T07:13:52.127Z,82.653809
2019-04-30T07:14:50.846Z,82.958984
2019-04-30T07:15:50.902Z,83.270264
2019-04-30T07:16:50.932Z,83.270264
2019-04-30T07:17:50.959Z,83.679199
2019-04-30T07:18:50.998Z,83.575439
2019-04-30T07:19:56.477Z,83.575439
2019-04-30T07:20:51.035Z,83.538818
2019-04-30T07:21:51.039Z,83.636475
2019-04-30T07:23:00.114Z,83.538818
2019-04-30T07:23:52.046Z,83.496094
2019-04-30T07:24:51.176Z,83.703613
2019-04-30T07:25:51.637Z,83.764648
2019-04-30T07:26:54.601Z,82.641602
2019-04-30T07:27:52.354Z,82.397461
2019-04-30T07:28:54.693Z,81.274414
2019-04-30T07:29:51.551Z,81.68335
2019-04-30T07:31:07.524Z,80.865479
2019-04-30T07:31:52.550Z,80.621338
2019-04-30T07:32:51.580Z,79.907227
2019-04-30T07:33:53.840Z,79.498291
2019-04-30T07:34:51.610Z,79.394531
2019-04-30T07:35:51.693Z,79.803467
2019-04-30T07:37:10.660Z,79.602051
2019-04-30T07:37:54.456Z,79.46167
2019-04-30T07:38:56.319Z,79.35791
2019-04-30T07:39:51.945Z,78.442383
2019-04-30T07:40:52.084Z,76.904297
2019-04-30T07:41:52.135Z,77.722168
2019-04-30T07:42:52.135Z,77.825928
2019-04-30T07:43:52.148Z,77.722168
2019-04-30T07:44:52.174Z,77.789307
2019-04-30T07:45:52.202Z,77.587891
2019-04-30T07:46:52.244Z,77.587891
2019-04-30T07:47:52.242Z,76.5625
2019-04-30T07:48:52.274Z,76.531982
2019-04-30T07:49:55.730Z,76.428223
2019-04-30T07:50:52.421Z,76.019287
2019-04-30T07:51:53.181Z,76.837158
2019-04-30T07:53:02.380Z,76.190186
2019-04-30T07:53:53.518Z,76.086426
2019-04-30T07:54:52.570Z,74.859619
2019-04-30T07:55:52.684Z,75.946045
2019-04-30T07:56:52.748Z,76.153564
2019-04-30T07:57:52.876Z,75.506592
2019-04-30T07:58:52.929Z,75.811768
2019-04-30T07:59:52.939Z,75.164795
2019-04-30T08:00:56.101Z,72.924805
2019-04-30T08:02:03.924Z,72.039795
2019-04-30T08:02:54.195Z,72.650146
2019-04-30T08:03:53.575Z,73.669434
2019-04-30T08:04:53.378Z,71.905518
2019-04-30T08:05:53.508Z,72.241211
2019-04-30T08:06:53.495Z,74.89624
2019-04-30T08:07:53.466Z,73.022461
2019-04-30T08:09:36.726Z,72.924805
2019-04-30T08:09:53.730Z,72.479248
2019-04-30T08:10:53.759Z,72.076416
2019-04-30T08:11:53.807Z,71.057129
2019-04-30T08:12:54.089Z,68.95752
2019-04-30T08:13:54.849Z,67.944336
2019-04-30T08:14:53.938Z,66.723633
2019-04-30T08:15:54.097Z,67.541504
2019-04-30T08:16:54.224Z,67.773438
2019-04-30T08:18:03.259Z,67.706299
2019-04-30T08:18:54.304Z,68.548584
2019-04-30T08:19:54.320Z,68.95752
2019-04-30T08:20:54.338Z,69.702148
2019-04-30T08:21:54.409Z,69.934082
2019-04-30T08:22:54.512Z,70.239258
2019-04-30T08:23:54.553Z,69.665527
2019-04-30T08:24:54.574Z,69.561768
2019-04-30T08:25:54.593Z,70.275879
2019-04-30T08:26:54.589Z,70.172119
2019-04-30T08:27:54.632Z,70.074463
2019-04-30T08:28:54.624Z,71.362305
2019-04-30T08:29:54.726Z,69.628906
2019-04-30T08:30:55.892Z,69.903564
2019-04-30T08:31:54.880Z,69.598389
2019-04-30T08:32:54.947Z,68.682861
2019-04-30T08:33:55.004Z,69.598389
2019-04-30T08:34:55.103Z,70.007324
2019-04-30T08:35:55.247Z,67.633057
2019-04-30T08:36:56.332Z,67.706299
2019-04-30T08:37:56.398Z,68.658447
2019-04-30T08:38:55.397Z,66.766357
2019-04-30T08:39:55.414Z,66.73584
2019-04-30T08:40:58.023Z,64.94751
2019-04-30T08:41:55.526Z,62.384033
2019-04-30T08:42:55.635Z,62.615967
2019-04-30T08:43:55.616Z,61.834717
2019-04-30T08:44:55.788Z,63.586426
2019-04-30T08:45:55.779Z,63.183594
2019-04-30T08:46:55.861Z,63.214111
2019-04-30T08:47:55.981Z,64.971924
2019-04-30T08:48:56.148Z,65.405273
2019-04-30T08:49:56.159Z,64.593506
2019-04-30T08:50:56.173Z,65.435791
2019-04-30T08:51:58.669Z,66.790771
2019-04-30T08:52:56.256Z,67.126465
2019-04-30T08:53:56.290Z,67.663574
2019-04-30T08:54:56.307Z,68.17627
2019-04-30T08:55:59.094Z,68.786621
2019-04-30T08:56:56.333Z,69.189453
2019-04-30T08:58:09.136Z,68.103027
2019-04-30T08:58:59.256Z,68.005371
2019-04-30T08:59:58.610Z,68.408203
2019-04-30T09:00:58.735Z,68.310547
2019-04-30T09:01:56.593Z,68.920898
2019-04-30T09:02:59.331Z,68.206787
2019-04-30T09:03:59.643Z,69.018555
2019-04-30T09:04:58.769Z,69.226074
2019-04-30T09:05:58.922Z,68.377686
2019-04-30T09:06:59.756Z,68.579102
2019-04-30T09:07:59.633Z,67.96875
2019-04-30T09:08:59.303Z,67.565918
2019-04-30T09:09:58.436Z,67.126465
2019-04-30T09:10:57.088Z,67.327881
2019-04-30T09:11:58.961Z,67.938232
2019-04-30T09:12:59.589Z,68.652344
2019-04-30T09:13:58.480Z,69.128418
2019-04-30T09:14:59.064Z,69.63501
2019-04-30T09:15:59.295Z,68.518066
2019-04-30T09:16:59.402Z,68.182373
2019-04-30T09:18:03.466Z,66.625977
2019-04-30T09:18:59.477Z,67.236328
2019-04-30T09:19:58.822Z,66.119385
2019-04-30T09:21:05.598Z,66.418457
2019-04-30T09:21:58.994Z,65.710449
2019-04-30T09:22:59.504Z,65.679932
2019-04-30T09:23:59.472Z,66.900635
2019-04-30T09:24:59.197Z,66.082764
2019-04-30T09:25:58.633Z,64.868164
2019-04-30T09:26:59.021Z,64.129639
2019-04-30T09:27:59.358Z,62.298584
2019-04-30T09:28:59.272Z,65.447998
2019-04-30T09:29:58.841Z,63.317871
2019-04-30T09:30:59.508Z,63.720703
2019-04-30T09:31:59.376Z,63.720703
2019-04-30T09:32:59.466Z,63.519287
2019-04-30T09:34:00.878Z,63.751221
2019-04-30T09:34:58.769Z,63.751221
2019-04-30T09:35:59.506Z,63.037109
2019-04-30T09:36:59.008Z,62.432861
2019-04-30T09:38:01.237Z,62.969971
2019-04-30T09:39:01.267Z,64.697266
2019-04-30T09:39:59.190Z,65.032959
2019-04-30T09:40:59.725Z,66.046143
2019-04-30T09:41:59.557Z,66.351318
2019-04-30T09:43:00.371Z,66.96167
2019-04-30T09:43:59.724Z,67.028809
2019-04-30T09:44:59.591Z,66.418457
2019-04-30T09:45:59.326Z,67.028809
2019-04-30T09:46:58.964Z,66.625977
2019-04-30T09:47:59.280Z,67.437744
2019-04-30T09:48:59.707Z,67.236328
2019-04-30T09:49:59.686Z,65.911865
2019-04-30T09:51:00.625Z,65.100098
2019-04-30T09:51:59.758Z,66.827393
2019-04-30T09:53:00.107Z,66.418457
2019-04-30T09:54:02.164Z,66.387939
2019-04-30T09:54:59.787Z,66.796875
2019-04-30T09:55:59.668Z,67.504883
2019-04-30T09:56:59.390Z,68.115234
2019-04-30T09:58:00.467Z,65.783691
2019-04-30T09:59:00.588Z,65.985107
2019-04-30T10:00:00.580Z,67.199707
2019-04-30T10:00:59.634Z,65.985107
2019-04-30T10:01:59.669Z,66.491699
2019-04-30T10:03:00.283Z,65.374756
2019-04-30T10:04:00.410Z,66.998291
2019-04-30T10:05:00.192Z,64.459229
2019-04-30T10:05:59.954Z,64.868164
2019-04-30T10:06:59.951Z,64.764404
2019-04-30T10:08:00.097Z,65.06958
2019-04-30T10:09:00.233Z,65.576172
2019-04-30T10:10:00.237Z,64.971924
2019-04-30T10:11:00.248Z,64.63623
2019-04-30T10:12:00.316Z,64.63623
2019-04-30T10:13:00.360Z,63.183594
2019-04-30T10:14:00.473Z,62.908936
2019-04-30T10:15:00.509Z,63.616943
2019-04-30T10:16:00.569Z,64.63623
2019-04-30T10:17:00.502Z,65.039062
2019-04-30T10:18:00.665Z,63.824463
2019-04-30T10:19:01.357Z,64.532471
2019-04-30T10:20:00.816Z,63.922119
2019-04-30T10:21:00.995Z,65.41748
2019-04-30T10:22:00.980Z,65.484619
2019-04-30T10:23:01.129Z,64.575195
2019-04-30T10:24:12.208Z,64.038086
2019-04-30T10:25:01.420Z,62.109375
2019-04-30T10:26:01.473Z,59.576416
2019-04-30T10:27:01.635Z,61.071777
2019-04-30T10:28:01.585Z,60.968018
2019-04-30T10:29:01.668Z,59.753418
2019-04-30T10:30:01.668Z,58.740234
2019-04-30T10:31:01.723Z,59.118652
2019-04-30T10:32:01.696Z,59.869385
2019-04-30T10:33:01.831Z,59.381104
2019-04-30T10:34:01.904Z,57.48291
2019-04-30T10:35:01.876Z,55.688477
2019-04-30T10:36:02.054Z,54.400635
2019-04-30T10:37:03.137Z,52.514648
2019-04-30T10:38:02.235Z,51.641846
2019-04-30T10:39:02.362Z,48.486328
2019-04-30T10:40:02.491Z,46.740723
2019-04-30T10:41:02.634Z,45.715332
2019-04-30T10:42:02.623Z,46.496582
2019-04-30T10:43:02.746Z,44.573975
2019-04-30T10:44:02.865Z,43.328857
2019-04-30T10:45:02.921Z,42.694092
2019-04-30T10:46:03.101Z,42.553711
2019-04-30T10:47:03.101Z,40.460205
2019-04-30T10:48:03.223Z,40.95459
2019-04-30T10:49:03.356Z,41.656494
2019-04-30T10:50:03.483Z,40.240479
2019-04-30T10:51:03.622Z,40.50293
2019-04-30T10:52:03.774Z,40.95459
2019-04-30T10:53:03.762Z,41.137695
2019-04-30T10:54:03.733Z,40.637207
2019-04-30T10:55:04.824Z,41.577148
2019-04-30T10:56:03.980Z,41.973877
2019-04-30T10:57:04.009Z,39.959717
2019-04-30T10:58:04.115Z,41.851807
2019-04-30T10:59:04.258Z,41.436768
2019-04-30T11:00:04.370Z,40.740967
2019-04-30T11:01:04.467Z,40.240479
2019-04-30T11:02:04.626Z,41.033936
2019-04-30T11:03:16.123Z,42.132568
2019-04-30T11:04:05.831Z,42.010498
2019-04-30T11:05:04.957Z,41.912842
2019-04-30T11:06:05.121Z,42.907715
2019-04-30T11:07:05.133Z,40.441895
2019-04-30T11:08:06.241Z,41.912842
2019-04-30T11:09:05.369Z,40.618896
2019-04-30T11:10:05.477Z,40.820312
2019-04-30T11:11:05.596Z,41.19873
2019-04-30T11:12:05.772Z,40.795898
2019-04-30T11:13:05.887Z,40.020752
2019-04-30T11:14:06.025Z,39.422607
2019-04-30T11:15:06.149Z,39.825439
2019-04-30T11:16:12.360Z,40.39917
2019-04-30T11:17:09.566Z,41.851807
2019-04-30T11:18:07.675Z,41.339111
2019-04-30T11:19:06.766Z,40.52124
2019-04-30T11:20:08.377Z,37.738037
2019-04-30T11:21:09.707Z,38.15918
2019-04-30T11:22:08.252Z,38.671875
2019-04-30T11:23:14.058Z,39.16626
2019-04-30T11:24:09.310Z,38.275146
2019-04-30T11:25:07.413Z,39.385986
2019-04-30T11:26:08.744Z,38.012695